createdAt,value
2023-04-22T00:01:42.245Z,9.30
2023-04-22T00:04:09.511Z,13.48
2023-04-22T00:06:37.162Z,15.13
2023-04-22T00:09:04.056Z,24.13
2023-04-22T00:11:31.119Z,19.80
2023-04-22T00:13:57.889Z,13.27
2023-04-22T00:16:26.355Z,10.10
2023-04-22T00:18:53.435Z,9.10
2023-04-22T00:21:20.546Z,13.48
2023-04-22T00:23:47.570Z,8.90
2023-04-22T00:26:14.639Z,7.13
2023-04-22T00:28:41.858Z,16.35
2023-04-22T00:31:08.704Z,14.82
2023-04-22T00:33:36.360Z,15.25
2023-04-22T00:36:03.928Z,8.60
2023-04-22T00:38:30.878Z,11.82
2023-04-22T00:40:57.863Z,12.15
2023-04-22T00:43:24.792Z,10.85
2023-04-22T00:45:51.754Z,16.17
2023-04-22T00:48:18.757Z,13.27
2023-04-22T00:50:45.586Z,9.00
2023-04-22T00:53:12.538Z,11.10
2023-04-22T00:55:40.292Z,8.40
2023-04-22T00:58:08.098Z,12.75
2023-04-22T01:00:35.909Z,7.13
2023-04-22T01:03:03.178Z,8.98
2023-04-22T01:05:31.833Z,5.97
2023-04-22T01:07:59.389Z,10.43
2023-04-22T01:10:26.537Z,5.85
2023-04-22T01:12:53.472Z,7.97
2023-04-22T01:15:20.824Z,9.23
2023-04-22T01:17:48.051Z,17.08
2023-04-22T01:20:16.172Z,20.13
2023-04-22T01:22:45.470Z,16.70
2023-04-22T01:25:12.948Z,15.63
2023-04-22T01:27:41.114Z,8.65
2023-04-22T01:30:09.431Z,14.98
2023-04-22T01:32:36.716Z,10.55
2023-04-22T01:35:03.950Z,9.90
2023-04-22T01:37:31.416Z,6.57
2023-04-22T01:39:59.396Z,8.18
2023-04-22T01:42:26.696Z,9.68
2023-04-22T01:44:54.156Z,9.48
2023-04-22T01:47:21.357Z,6.07
2023-04-22T01:49:48.288Z,8.68
2023-04-22T01:52:15.467Z,7.40
2023-04-22T01:54:42.377Z,8.68
2023-04-22T01:57:14.306Z,8.90
2023-04-22T01:59:41.916Z,10.88
2023-04-22T02:02:09.216Z,11.85
2023-04-22T02:04:36.603Z,12.70
2023-04-22T02:07:03.764Z,19.00
2023-04-22T02:09:33.740Z,19.92
2023-04-22T02:12:01.648Z,11.60
2023-04-22T02:14:28.606Z,17.63
2023-04-22T02:16:55.566Z,16.77
2023-04-22T02:19:22.691Z,20.75
2023-04-22T02:21:49.751Z,10.63
2023-04-22T02:24:16.722Z,13.65
2023-04-22T02:26:43.654Z,10.43
2023-04-22T02:29:10.824Z,7.15
2023-04-22T02:31:37.949Z,14.48
2023-04-22T02:34:04.979Z,15.10
2023-04-22T02:36:32.641Z,7.43
2023-04-22T02:38:59.568Z,10.25
2023-04-22T02:41:26.619Z,10.90
2023-04-22T02:43:53.759Z,11.07
2023-04-22T02:46:20.679Z,10.20
2023-04-22T02:48:48.850Z,13.82
2023-04-22T02:51:15.717Z,8.48
2023-04-22T02:53:43.090Z,6.28
2023-04-22T02:56:10.162Z,9.95
2023-04-22T02:58:36.958Z,9.95
2023-04-22T03:01:04.029Z,19.67
2023-04-22T03:03:32.253Z,12.50
2023-04-22T03:05:59.506Z,10.77
2023-04-22T03:08:26.641Z,8.20
2023-04-22T03:10:53.555Z,9.00
2023-04-22T03:13:22.494Z,20.67
2023-04-22T03:15:51.186Z,8.48
2023-04-22T03:18:18.938Z,8.93
2023-04-22T03:20:45.967Z,9.88
2023-04-22T03:23:13.413Z,9.07
2023-04-22T03:25:41.326Z,10.50
2023-04-22T03:28:08.365Z,9.38
2023-04-22T03:30:35.410Z,8.23
2023-04-22T03:33:02.426Z,11.70
2023-04-22T03:35:52.016Z,16.83
2023-04-22T03:38:19.057Z,17.35
2023-04-22T03:40:46.095Z,14.20
2023-04-22T03:43:21.985Z,9.90
2023-04-22T03:45:59.812Z,7.93
2023-04-22T03:48:35.667Z,10.88
2023-04-22T03:51:07.980Z,8.57
2023-04-22T03:53:36.987Z,9.05
2023-04-22T03:56:04.365Z,8.75
2023-04-22T03:58:33.946Z,8.32
2023-04-22T04:01:05.141Z,17.98
2023-04-22T04:03:32.507Z,12.25
2023-04-22T04:06:00.301Z,6.35
2023-04-22T04:08:28.034Z,11.23
2023-04-22T04:10:55.008Z,11.75
2023-04-22T04:13:23.231Z,13.15
2023-04-22T04:16:07.394Z,10.38
2023-04-22T04:18:34.661Z,15.15
2023-04-22T04:21:01.709Z,15.45
2023-04-22T04:23:32.469Z,13.07
2023-04-22T04:26:02.807Z,13.18
2023-04-22T04:28:32.412Z,18.08
2023-04-22T04:31:00.923Z,11.60
2023-04-22T04:33:28.816Z,12.85
2023-04-22T04:35:56.050Z,16.73
2023-04-22T04:38:29.094Z,13.10
2023-04-22T04:40:56.599Z,18.65
2023-04-22T04:43:26.264Z,17.55
2023-04-22T04:46:04.728Z,13.38
2023-04-22T04:48:36.329Z,13.43
2023-04-22T04:51:08.072Z,19.10
2023-04-22T04:53:41.032Z,17.10
2023-04-22T04:56:07.909Z,18.42
2023-04-22T04:58:35.394Z,15.88
2023-04-22T05:01:17.238Z,21.33
2023-04-22T05:03:46.176Z,28.05
2023-04-22T05:06:15.705Z,22.33
2023-04-22T05:08:47.508Z,16.35
2023-04-22T05:11:14.654Z,20.80
2023-04-22T05:13:43.500Z,19.40
2023-04-22T05:16:15.332Z,21.45
2023-04-22T05:18:42.201Z,15.63
2023-04-22T05:21:10.767Z,20.63
2023-04-22T05:23:38.641Z,15.02
2023-04-22T05:26:07.003Z,32.10
2023-04-22T05:28:35.582Z,30.08
2023-04-22T05:31:04.098Z,23.35
2023-04-22T05:33:31.620Z,21.25
2023-04-22T05:35:58.748Z,14.43
2023-04-22T05:38:26.127Z,19.85
2023-04-22T05:40:55.752Z,13.23
2023-04-22T05:43:22.720Z,14.02
2023-04-22T05:45:57.234Z,10.38
2023-04-22T05:48:24.215Z,6.63
2023-04-22T05:51:00.572Z,13.23
2023-04-22T05:53:29.588Z,9.27
2023-04-22T05:55:59.482Z,11.85
2023-04-22T05:58:26.286Z,8.43
2023-04-22T06:00:54.864Z,11.05
2023-04-22T06:03:40.618Z,11.10
2023-04-22T06:06:08.520Z,15.38
2023-04-22T06:08:35.678Z,35.40
2023-04-22T06:11:02.763Z,20.25
2023-04-22T06:13:32.499Z,28.27
2023-04-22T06:15:59.870Z,16.65
2023-04-22T06:18:28.133Z,11.15
2023-04-22T06:20:55.995Z,15.85
2023-04-22T06:23:23.234Z,9.55
2023-04-22T06:25:50.264Z,12.02
2023-04-22T06:28:17.828Z,23.80
2023-04-22T06:30:46.248Z,20.15
2023-04-22T06:33:13.234Z,7.47
2023-04-22T06:35:40.432Z,25.92
2023-04-22T06:38:07.763Z,13.50
2023-04-22T06:40:43.642Z,7.35
2023-04-22T06:43:23.720Z,10.15
2023-04-22T06:45:59.718Z,8.20
2023-04-22T06:48:40.095Z,9.45
2023-04-22T06:51:27.354Z,11.98
2023-04-22T06:53:54.290Z,12.13
2023-04-22T06:56:21.310Z,9.77
2023-04-22T06:58:48.692Z,9.55
2023-04-22T07:01:15.545Z,14.38
2023-04-22T07:03:43.014Z,12.57
2023-04-22T07:06:14.085Z,30.02
2023-04-22T07:08:41.281Z,6.60
2023-04-22T07:11:10.987Z,12.15
2023-04-22T07:13:57.866Z,9.48
2023-04-22T07:16:25.241Z,22.63
2023-04-22T07:18:52.256Z,12.88
2023-04-22T07:21:19.308Z,4.43
2023-04-22T07:23:46.440Z,6.60
2023-04-22T07:26:13.326Z,6.57
2023-04-22T07:28:41.619Z,7.95
2023-04-22T07:31:08.398Z,11.30
2023-04-22T07:33:35.848Z,6.90
2023-04-22T07:36:03.250Z,3.95
2023-04-22T07:38:30.152Z,5.25
2023-04-22T07:40:57.060Z,11.48
2023-04-22T07:43:24.003Z,12.05
2023-04-22T07:45:51.479Z,11.73
2023-04-22T07:48:18.432Z,6.43
2023-04-22T07:50:45.422Z,10.63
2023-04-22T07:53:12.752Z,7.93
2023-04-22T07:55:39.730Z,5.72
2023-04-22T07:58:07.004Z,11.27
2023-04-22T08:00:37.022Z,8.82
2023-04-22T08:03:05.063Z,8.40
2023-04-22T08:05:32.418Z,8.88
2023-04-22T08:07:59.456Z,10.57
2023-04-22T08:10:26.545Z,5.50
2023-04-22T08:12:53.403Z,7.18
2023-04-22T08:15:21.159Z,7.68
2023-04-22T08:17:49.117Z,18.42
2023-04-22T08:20:18.249Z,6.40
2023-04-22T08:22:45.563Z,5.50
2023-04-22T08:25:12.713Z,10.82
2023-04-22T08:27:39.769Z,5.18
2023-04-22T08:30:07.791Z,6.18
2023-04-22T08:32:34.892Z,12.05
2023-04-22T08:35:04.933Z,11.23
2023-04-22T08:37:32.628Z,10.87
2023-04-22T08:39:59.632Z,10.85
2023-04-22T08:42:27.642Z,14.85
2023-04-22T08:44:54.935Z,12.35
2023-04-22T08:47:22.593Z,6.15
2023-04-22T08:49:51.653Z,8.50
2023-04-22T08:52:18.947Z,5.93
2023-04-22T08:54:46.228Z,12.68
2023-04-22T08:57:15.482Z,25.80
2023-04-22T08:59:42.799Z,6.43
2023-04-22T09:02:16.762Z,13.55
2023-04-22T09:04:45.576Z,8.85
2023-04-22T09:07:19.216Z,14.57
2023-04-22T09:09:46.750Z,12.45
2023-04-22T09:12:13.816Z,12.38
2023-04-22T09:14:42.190Z,8.93
2023-04-22T09:17:09.209Z,13.60
2023-04-22T09:19:36.085Z,6.13
2023-04-22T09:22:03.209Z,4.40
2023-04-22T09:24:30.346Z,6.10
2023-04-22T09:26:58.169Z,8.10
2023-04-22T09:29:30.878Z,11.85
2023-04-22T09:31:57.983Z,9.20
2023-04-22T09:34:31.867Z,7.88
2023-04-22T09:36:58.767Z,4.70
2023-04-22T09:42:19.492Z,9.73
2023-04-22T09:44:52.733Z,5.33
2023-04-22T09:47:20.815Z,10.73
2023-04-22T09:49:49.451Z,12.27
2023-04-22T09:52:25.391Z,15.90
2023-04-22T09:54:53.936Z,8.77
2023-04-22T09:57:22.087Z,9.45
2023-04-22T09:59:53.109Z,10.90
2023-04-22T10:02:29.445Z,9.82
2023-04-22T10:04:57.689Z,8.75
2023-04-22T10:07:24.796Z,8.90
2023-04-22T10:09:51.955Z,9.38
2023-04-22T10:12:26.124Z,11.07
2023-04-22T10:15:00.483Z,10.93
2023-04-22T10:17:32.074Z,12.70
2023-04-22T10:20:04.622Z,16.10
2023-04-22T10:22:35.132Z,8.40
2023-04-22T10:25:01.989Z,4.73
2023-04-22T10:27:29.022Z,7.70
2023-04-22T10:30:07.961Z,7.15
2023-04-22T10:32:34.731Z,13.73
2023-04-22T10:35:17.607Z,8.77
2023-04-22T10:37:46.455Z,7.47
2023-04-22T10:40:37.785Z,9.25
2023-04-22T10:43:04.785Z,11.07
2023-04-22T10:45:32.831Z,11.75
2023-04-22T10:48:04.678Z,7.25
2023-04-22T10:50:33.372Z,4.70
2023-04-22T10:53:21.287Z,6.55
2023-04-22T10:55:53.134Z,8.95
2023-04-22T10:58:22.175Z,27.35
2023-04-22T11:00:54.391Z,181.25
2023-04-22T11:03:28.480Z,16.17
2023-04-22T11:06:16.249Z,65.35
2023-04-22T11:08:49.834Z,8.48
2023-04-22T11:11:18.670Z,11.98
2023-04-22T11:13:50.609Z,8.23
2023-04-22T11:16:22.280Z,8.30
2023-04-22T11:18:49.983Z,10.32
2023-04-22T11:21:17.167Z,18.40
2023-04-22T11:23:53.188Z,8.73
2023-04-22T11:26:33.960Z,11.43
2023-04-22T11:29:01.538Z,8.27
2023-04-22T11:31:28.483Z,12.95
2023-04-22T11:33:59.591Z,9.45
2023-04-22T11:36:27.831Z,5.63
2023-04-22T11:38:57.728Z,7.60
2023-04-22T11:41:24.829Z,7.10
2023-04-22T11:43:52.303Z,8.23
2023-04-22T11:46:31.657Z,7.70
2023-04-22T11:49:16.823Z,12.55
2023-04-22T11:51:55.425Z,8.38
2023-04-22T11:54:36.562Z,6.43
2023-04-22T11:57:06.235Z,8.63
2023-04-22T11:59:33.189Z,13.40
2023-04-22T12:02:00.345Z,7.43
2023-04-22T12:04:27.396Z,4.00
2023-04-22T12:06:54.345Z,9.40
2023-04-22T12:09:25.896Z,4.60
2023-04-22T12:11:52.971Z,10.20
2023-04-22T12:14:19.851Z,10.95
2023-04-22T12:16:46.701Z,4.30
2023-04-22T12:19:13.868Z,7.00
2023-04-22T12:21:42.384Z,8.48
2023-04-22T12:24:12.497Z,10.10
2023-04-22T12:26:39.512Z,10.88
2023-04-22T12:29:06.512Z,5.53
2023-04-22T12:31:33.882Z,13.32
2023-04-22T12:34:01.528Z,9.80
2023-04-22T12:36:29.158Z,7.57
2023-04-22T12:38:56.628Z,8.52
2023-04-22T12:41:23.889Z,8.82
2023-04-22T12:43:50.785Z,5.78
2023-04-22T12:46:18.085Z,18.58
2023-04-22T12:48:44.971Z,5.53
2023-04-22T12:51:12.096Z,8.93
2023-04-22T12:53:38.931Z,12.30
2023-04-22T12:56:06.342Z,11.85
2023-04-22T12:58:33.153Z,5.93
2023-04-22T13:01:00.087Z,14.98
2023-04-22T13:03:27.725Z,7.18
2023-04-22T13:05:55.392Z,6.18
2023-04-22T13:08:22.472Z,7.45
2023-04-22T13:10:49.719Z,12.02
2023-04-22T13:13:19.035Z,14.05
2023-04-22T13:15:54.143Z,6.28
2023-04-22T13:18:23.150Z,8.45
2023-04-22T13:20:50.159Z,4.60
2023-04-22T13:23:17.527Z,3.42
2023-04-22T13:25:44.574Z,9.27
2023-04-22T13:28:11.960Z,10.52
2023-04-22T13:30:39.883Z,9.38
2023-04-22T13:33:07.380Z,7.72
2023-04-22T13:35:34.590Z,11.35
2023-04-22T13:38:01.568Z,10.90
2023-04-22T13:40:28.924Z,5.15
2023-04-22T13:42:56.203Z,14.32
2023-04-22T13:45:23.690Z,5.72
2023-04-22T13:47:51.068Z,8.93
2023-04-22T13:50:18.357Z,3.83
2023-04-22T13:52:46.118Z,4.88
2023-04-22T13:55:13.385Z,9.52
2023-04-22T13:57:40.288Z,6.00
2023-04-22T14:00:09.532Z,14.27
2023-04-22T14:02:39.550Z,7.90
2023-04-22T14:05:07.544Z,8.43
2023-04-22T14:07:34.508Z,7.78
2023-04-22T14:10:01.409Z,7.10
2023-04-22T14:12:28.406Z,17.08
2023-04-22T14:14:55.573Z,11.10
2023-04-22T14:17:23.873Z,5.78
2023-04-22T14:19:50.820Z,9.63
2023-04-22T14:22:17.806Z,7.07
2023-04-22T14:24:44.649Z,5.10
2023-04-22T14:27:12.636Z,5.47
2023-04-22T14:29:40.101Z,9.05
2023-04-22T14:32:07.573Z,7.75
2023-04-22T14:34:34.394Z,7.88
2023-04-22T14:37:01.927Z,6.78
2023-04-22T14:39:28.780Z,7.15
2023-04-22T14:41:56.979Z,15.80
2023-04-22T14:44:24.068Z,18.30
2023-04-22T14:46:51.357Z,11.35
2023-04-22T14:49:18.318Z,35.63
2023-04-22T14:51:45.536Z,8.18
2023-04-22T14:54:12.895Z,5.43
2023-04-22T14:56:40.268Z,21.17
2023-04-22T14:59:07.330Z,5.05
2023-04-22T15:01:34.542Z,3.35
2023-04-22T15:04:02.132Z,5.95
2023-04-22T15:06:29.121Z,4.82
2023-04-22T15:08:56.249Z,4.47
2023-04-22T15:11:23.110Z,8.40
2023-04-22T15:13:49.933Z,6.78
2023-04-22T15:16:17.703Z,10.25
2023-04-22T15:18:44.792Z,5.03
2023-04-22T15:21:11.659Z,9.45
2023-04-22T15:23:38.761Z,9.38
2023-04-22T15:26:06.092Z,6.47
2023-04-22T15:28:33.743Z,14.02
2023-04-22T15:31:01.494Z,6.40
2023-04-22T15:33:28.688Z,10.43
2023-04-22T15:35:55.660Z,6.63
2023-04-22T15:38:22.689Z,12.10
2023-04-22T15:40:49.668Z,8.75
2023-04-22T15:43:16.820Z,8.95
2023-04-22T15:45:43.771Z,6.43
2023-04-22T15:48:10.936Z,4.53
2023-04-22T15:50:40.122Z,8.07
2023-04-22T15:53:07.172Z,5.60
2023-04-22T15:55:36.575Z,5.97
2023-04-22T15:58:13.170Z,12.98
2023-04-22T16:00:41.121Z,7.63
2023-04-22T16:03:37.375Z,7.45
2023-04-22T16:06:19.586Z,8.48
2023-04-22T16:08:46.538Z,10.35
2023-04-22T16:11:15.324Z,3.75
2023-04-22T16:13:42.882Z,8.70
2023-04-22T16:16:10.179Z,6.72
2023-04-22T16:18:38.176Z,6.68
2023-04-22T16:21:05.297Z,8.40
2023-04-22T16:23:33.586Z,7.55
2023-04-22T16:26:02.814Z,7.00
2023-04-22T16:28:29.836Z,7.75
2023-04-22T16:30:56.789Z,14.88
2023-04-22T16:33:24.552Z,10.35
2023-04-22T16:35:51.740Z,8.57
2023-04-22T16:38:18.773Z,14.52
2023-04-22T16:40:45.876Z,16.25
2023-04-22T16:43:13.095Z,16.88
2023-04-22T16:45:42.990Z,12.32
2023-04-22T16:48:09.981Z,9.90
2023-04-22T16:50:38.782Z,13.35
2023-04-22T16:53:16.523Z,21.70
2023-04-22T16:59:05.140Z,10.70
2023-04-22T17:01:59.702Z,8.65
2023-04-22T17:04:42.359Z,10.20
2023-04-22T17:07:09.143Z,7.45
2023-04-22T17:09:36.281Z,9.98
2023-04-22T17:12:03.206Z,9.07
2023-04-22T17:14:30.480Z,22.92
2023-04-22T17:16:57.244Z,10.73
2023-04-22T17:19:25.118Z,10.60
2023-04-22T17:21:51.939Z,12.38
2023-04-22T17:24:22.219Z,11.65
2023-04-22T17:26:49.307Z,18.13
2023-04-22T17:29:16.450Z,14.13
2023-04-22T17:31:43.330Z,10.15
2023-04-22T17:34:10.559Z,11.13
2023-04-22T17:36:37.394Z,13.93
2023-04-22T17:39:04.271Z,19.90
2023-04-22T17:41:31.302Z,21.45
2023-04-22T17:43:59.318Z,34.55
2023-04-22T17:46:26.365Z,34.67
2023-04-22T17:48:53.208Z,29.92
2023-04-22T17:51:20.874Z,80.97
2023-04-22T17:53:47.771Z,141.93
2023-04-22T17:56:14.598Z,164.25
2023-04-22T17:58:41.515Z,149.00
2023-04-22T18:01:18.283Z,126.53
2023-04-22T18:03:45.920Z,112.72
2023-04-22T18:06:16.397Z,58.47
2023-04-22T18:08:43.199Z,79.57
2023-04-22T18:11:11.234Z,46.88
2023-04-22T18:13:38.547Z,45.40
2023-04-22T18:16:05.938Z,50.92
2023-04-22T18:18:32.812Z,55.25
2023-04-22T18:21:29.873Z,56.83
2023-04-22T18:23:56.697Z,54.60
2023-04-22T18:26:23.721Z,49.45
2023-04-22T18:28:50.778Z,48.08
2023-04-22T18:31:17.871Z,44.35
2023-04-22T18:33:44.745Z,45.78
2023-04-22T18:36:11.779Z,52.50
2023-04-22T18:38:38.911Z,44.65
2023-04-22T18:41:06.070Z,45.40
2023-04-22T18:43:33.066Z,30.73
2023-04-22T18:46:00.205Z,35.83
2023-04-22T18:48:27.010Z,47.20
2023-04-22T18:50:54.074Z,23.90
2023-04-22T18:53:21.149Z,33.28
2023-04-22T18:55:48.513Z,28.10
2023-04-22T18:58:15.381Z,35.38
2023-04-22T19:00:42.514Z,32.10
2023-04-22T19:03:09.657Z,20.13
2023-04-22T19:05:38.792Z,17.48
2023-04-22T19:08:05.740Z,16.95
2023-04-22T19:10:32.764Z,14.13
2023-04-22T19:13:00.032Z,13.43
2023-04-22T19:15:27.203Z,26.27
2023-04-22T19:17:54.181Z,23.88
2023-04-22T19:20:21.018Z,26.92
2023-04-22T19:22:48.057Z,23.48
2023-04-22T19:25:15.096Z,17.38
2023-04-22T19:27:41.898Z,26.15
2023-04-22T19:30:09.308Z,10.77
2023-04-22T19:32:36.691Z,18.67
2023-04-22T19:35:04.458Z,19.70
2023-04-22T19:37:31.531Z,15.60
2023-04-22T19:39:58.400Z,18.73
2023-04-22T19:42:25.366Z,27.77
2023-04-22T19:44:52.495Z,18.33
2023-04-22T19:47:19.618Z,11.63
2023-04-22T19:49:46.795Z,13.13
2023-04-22T19:52:15.684Z,10.05
2023-04-22T19:54:47.666Z,16.50
2023-04-22T19:57:15.545Z,12.55
2023-04-22T19:59:42.953Z,15.60
2023-04-22T20:02:10.462Z,12.43
2023-04-22T20:04:38.217Z,13.68
2023-04-22T20:07:06.985Z,12.55
2023-04-22T20:10:11.815Z,11.48
2023-04-22T20:12:39.068Z,16.33
2023-04-22T20:15:06.796Z,15.00
2023-04-22T20:17:38.504Z,17.58
2023-04-22T20:20:08.255Z,25.60
2023-04-22T20:22:35.348Z,26.67
2023-04-22T20:25:05.586Z,25.70
2023-04-22T20:27:33.919Z,22.73
2023-04-22T20:30:01.790Z,12.25
2023-04-22T20:32:37.548Z,13.18
2023-04-22T20:35:06.690Z,11.88
2023-04-22T20:37:48.750Z,12.60
2023-04-22T20:40:48.768Z,10.13
2023-04-22T20:43:35.939Z,11.40
2023-04-22T20:46:03.003Z,14.90
2023-04-22T20:48:31.833Z,10.48
2023-04-22T20:50:58.652Z,25.45
2023-04-22T20:53:30.855Z,15.77
2023-04-22T20:55:58.080Z,9.50
2023-04-22T20:58:43.419Z,13.70
2023-04-22T21:03:55.290Z,14.05
2023-04-22T21:06:22.442Z,7.95
2023-04-22T21:08:49.939Z,7.85
2023-04-22T21:11:17.707Z,8.82
2023-04-22T21:13:45.314Z,14.85
2023-04-22T21:16:13.822Z,10.27
2023-04-22T21:18:43.992Z,7.93
2023-04-22T21:21:12.256Z,7.78
2023-04-22T21:23:41.506Z,10.45
2023-04-22T21:26:23.327Z,13.98
2023-04-22T21:28:50.719Z,9.63
2023-04-22T21:31:17.910Z,11.88
2023-04-22T21:33:44.947Z,14.85
2023-04-22T21:36:11.901Z,13.93
2023-04-22T21:38:39.105Z,12.60
2023-04-22T21:41:06.260Z,12.38
2023-04-22T21:43:33.148Z,14.20
2023-04-22T21:46:01.073Z,11.70
2023-04-22T21:48:27.887Z,9.98
2023-04-22T21:50:54.751Z,9.60
2023-04-22T21:53:22.381Z,8.75
2023-04-22T21:55:49.334Z,11.25
2023-04-22T21:58:16.452Z,10.60
2023-04-22T22:00:43.642Z,18.77
2023-04-22T22:03:10.599Z,12.50
2023-04-22T22:05:37.667Z,9.10
2023-04-22T22:08:04.524Z,6.95
2023-04-22T22:10:31.443Z,8.43
2023-04-22T22:12:58.357Z,5.65
2023-04-22T22:15:25.345Z,11.43
2023-04-22T22:17:52.252Z,13.55
2023-04-22T22:20:20.585Z,7.85
2023-04-22T22:22:47.992Z,9.52
2023-04-22T22:25:16.061Z,9.88
2023-04-22T22:27:49.185Z,8.57
2023-04-22T22:30:20.560Z,10.23
2023-04-22T22:32:48.110Z,8.02
2023-04-22T22:35:15.302Z,11.38
2023-04-22T22:37:42.323Z,7.55
2023-04-22T22:40:10.190Z,10.45
2023-04-22T22:42:37.310Z,10.90
2023-04-22T22:45:05.417Z,8.35
2023-04-22T22:47:32.407Z,11.40
2023-04-22T22:49:59.449Z,16.45
2023-04-22T22:52:26.387Z,17.27
2023-04-22T22:54:53.396Z,9.00
2023-04-22T22:57:20.934Z,11.85
2023-04-22T22:59:47.898Z,7.63
2023-04-22T23:02:15.059Z,11.98
2023-04-22T23:04:42.498Z,11.88
2023-04-22T23:07:09.609Z,9.60
2023-04-22T23:09:36.698Z,7.78
2023-04-22T23:12:03.708Z,8.25
2023-04-22T23:14:30.967Z,10.25
2023-04-22T23:16:57.813Z,12.48
2023-04-22T23:19:26.357Z,10.65
2023-04-22T23:21:54.822Z,12.40
2023-04-22T23:24:22.173Z,12.15
2023-04-22T23:26:49.389Z,11.02
2023-04-22T23:29:16.820Z,8.93
2023-04-22T23:31:44.359Z,11.90
2023-04-22T23:34:11.762Z,12.27
2023-04-22T23:36:38.933Z,8.30
2023-04-22T23:39:09.859Z,7.38
2023-04-22T23:41:37.139Z,7.03
2023-04-22T23:44:03.935Z,7.05
2023-04-22T23:46:31.015Z,8.48
2023-04-22T23:48:58.991Z,8.13
2023-04-22T23:51:26.047Z,7.47
2023-04-22T23:53:53.179Z,7.85
2023-04-22T23:56:23.094Z,12.45
2023-04-22T23:58:51.084Z,8.52
